Flight Track Log - Related Links

Times and Time Zones

All times are in EST time to prevent confusion due to time zone crossing. See the RHC9874 flight status page for this flight to view local times or setup timezone preferences in your user account.

Time Position Orientation Groundspeed Altitude Reporting Facility
EST Latitude Longitude Course Direction KTS MPH feet Rate Location/Type
Wed 12:56:00 AM 29.4929 119.4566 229° Southwest  Level Estimated
Wed 12:57:00 AM 29.4141 119.3537 229° Southwest  Level Estimated
Wed 12:58:00 AM 29.3353 119.2508 229° Southwest  Level Estimated
Wed 12:59:00 AM 29.2564 119.1482 229° Southwest  Level Estimated
Wed 01:00:00 AM 29.1775 119.0456 229° Southwest  Level Estimated
Wed 01:01:00 AM 29.0984 118.9433 229° Southwest  Level Estimated
Wed 01:02:00 AM 29.0193 118.8411 228° Southwest  Level Estimated
Wed 01:03:00 AM 28.9401 118.7390 228° Southwest  Level Estimated
Wed 01:04:00 AM 28.8608 118.6372 228° Southwest  Level Estimated
Wed 01:05:00 AM 28.7814 118.5354 228° Southwest  Level Estimated
Wed 01:06:00 AM 28.7020 118.4338 228° Southwest  Level Estimated
Wed 01:07:00 AM 28.6225 118.3324 228° Southwest  Level Estimated
Wed 01:08:00 AM 28.5429 118.2311 228° Southwest  Level Estimated
Wed 01:09:00 AM 28.4632 118.1300 228° Southwest  Level Estimated
Wed 01:10:00 AM 28.3835 118.0291 228° Southwest  Level Estimated
Wed 01:11:00 AM 28.3037 117.9283 228° Southwest  Level Estimated
Wed 01:12:00 AM 28.2238 117.8276 228° Southwest  Level Estimated
Wed 01:13:00 AM 28.1438 117.7271 228° Southwest  Level Estimated
Wed 01:14:00 AM 28.0638 117.6267 228° Southwest  Level Estimated
Wed 01:15:00 AM 27.9837 117.5265 228° Southwest  Level Estimated
Wed 01:16:00 AM 27.9035 117.4265 228° Southwest  Level Estimated
Wed 01:17:00 AM 27.8232 117.3266 228° Southwest  Level Estimated
Wed 01:18:00 AM 27.7429 117.2268 228° Southwest  Level Estimated
Wed 01:19:00 AM 27.6625 117.1272 228° Southwest  Level Estimated
Wed 01:20:00 AM 27.5821 117.0277 228° Southwest  Level Estimated
Wed 01:21:00 AM 27.5015 116.9284 228° Southwest  Level Estimated
Wed 01:22:00 AM 27.4209 116.8292 228° Southwest  Level Estimated
Wed 01:23:00 AM 27.3403 116.7301 227° Southwest  Level Estimated
Wed 01:24:00 AM 27.2595 116.6312 227° Southwest  Level Estimated
Wed 01:25:00 AM 27.1787 116.5325 227° Southwest  Level Estimated
Wed 01:26:00 AM 27.0978 116.4339 227° Southwest  Level Estimated
Wed 01:27:00 AM 27.0169 116.3354 227° Southwest  Level Estimated
Wed 01:28:00 AM 26.9358 116.2371 227° Southwest  Level Estimated
Wed 01:29:00 AM 26.8547 116.1389 227° Southwest  Level Estimated
Wed 01:30:00 AM 26.7736 116.0409 227° Southwest  Level Estimated
Wed 01:31:00 AM 26.6924 115.9430 227° Southwest  Level Estimated
Wed 01:32:00 AM 26.6111 115.8452 227° Southwest  Level Estimated
Wed 01:33:00 AM 26.5297 115.7476 227° Southwest  Level Estimated
Wed 01:34:00 AM 26.4483 115.6501 227° Southwest  Level Estimated
Wed 01:35:00 AM 26.3668 115.5528 227° Southwest  Level Estimated
Wed 01:36:00 AM 26.2852 115.4556 227° Southwest  Level Estimated
Wed 01:37:00 AM 26.2036 115.3585 227° Southwest  Level Estimated
Wed 01:38:00 AM 26.1219 115.2616 227° Southwest  Level Estimated
Wed 01:39:00 AM 26.0402 115.1648 227° Southwest  Level Estimated
Wed 01:40:00 AM 25.9584 115.0681 227° Southwest  Level Estimated
Wed 01:41:00 AM 25.8765 114.9716 227° Southwest  Level Estimated
Wed 01:42:00 AM 25.8258 114.9119 227° Southwest  Level Estimated
Wed 01:43:00 AM 25.8258 114.9119 50° Northeast  Level Estimated
Wed 01:44:00 AM 25.8258 114.9119 50° Northeast  Level Estimated
Wed 01:45:00 AM 25.8258 114.9119 50° Northeast  Level Estimated
Wed 01:46:00 AM 25.8258 114.9119 50° Northeast  Level Estimated
Wed 01:47:00 AM 25.8258 114.9119 50° Northeast  Level Estimated
Wed 01:48:00 AM 25.8258 114.9119 50° Northeast  Level Estimated
Wed 01:49:00 AM 25.8258 114.9119 50° Northeast  Level Estimated
Wed 01:50:00 AM 25.8258 114.9119 50° Northeast  Level Estimated
Wed 01:51:00 AM 25.8258 114.9119 50° Northeast  Level Estimated
Wed 01:52:00 AM 25.8258 114.9119 50° Northeast  Level Estimated
Wed 01:53:00 AM 25.8258 114.9119 50° Northeast  Level Estimated
Wed 01:54:00 AM 25.8258 114.9119 50° Northeast  Level Estimated
Wed 01:55:00 AM 25.8258 114.9119 50° Northeast  Level Estimated
Wed 01:56:00 AM 25.8258 114.9119 50° Northeast  Level Estimated
Wed 01:57:00 AM 25.8258 114.9119 50° Northeast  Level Estimated
Wed 01:58:00 AM 25.8258 114.9119 50° Northeast  Level Estimated
Wed 01:59:00 AM 25.8258 114.9119 50° Northeast  Level Estimated
Wed 02:00:00 AM 25.8258 114.9119 50° Northeast  Level Estimated

Login

Don't have an account? Register now (free) for customized features, flight alerts, and more!